Time;durP1;ratioP1;P1;durP2;ratioP2;P2;SDS_P1;SDS_P2;PMS_P1;PMS_P2;Temp;Humidity;BMP_temperature;BMP_pressure;BME280_temperature;BME280_humidity;BME280_pressure;Samples;Min_cycle;Max_cycle;Signal;HPM_P1;HPM_P2
2021/12/31 00:01:58;;;;;;;11.00;8.63;;;;;;;;;;5033093;28;20040;-51
2021/12/31 00:04:24;;;;;;;12.95;8.10;;;;;;;;;;5024326;28;20116;-57
2021/12/31 00:06:50;;;;;;;15.85;9.25;;;;;;;;;;5030336;28;20160;-57
2021/12/31 00:09:16;;;;;;;22.60;13.25;;;;;;;;;;5031311;28;20030;-57
2021/12/31 00:11:41;;;;;;;16.63;12.57;;;;;;;;;;5036247;28;20033;-57
2021/12/31 00:14:07;;;;;;;16.65;10.10;;;;;;;;;;5030661;28;20029;-54
2021/12/31 00:16:33;;;;;;;12.63;8.55;;;;;;;;;;5034497;28;20109;-56
2021/12/31 00:18:59;;;;;;;15.98;11.07;;;;;;;;;;5020926;28;20052;-56
2021/12/31 00:21:25;;;;;;;20.88;13.43;;;;;;;;;;5035898;28;20034;-56
2021/12/31 00:23:50;;;;;;;13.57;9.85;;;;;;;;;;5030387;28;20087;-56
2021/12/31 00:26:16;;;;;;;16.25;10.15;;;;;;;;;;5033187;28;20041;-55
2021/12/31 00:28:42;;;;;;;16.63;11.88;;;;;;;;;;5029763;28;20474;-57
2021/12/31 00:31:08;;;;;;;19.92;13.13;;;;;;;;;;5028486;28;20024;-57
2021/12/31 00:33:34;;;;;;;17.83;11.98;;;;;;;;;;5028821;28;20029;-56
2021/12/31 00:35:59;;;;;;;16.05;10.38;;;;;;;;;;5025730;28;20544;-57
2021/12/31 00:38:25;;;;;;;18.45;12.07;;;;;;;;;;5035886;28;20029;-57
2021/12/31 00:40:50;;;;;;;11.77;10.40;;;;;;;;;;5033079;28;20036;-58
2021/12/31 00:43:16;;;;;;;12.57;9.15;;;;;;;;;;5022542;28;20026;-57
2021/12/31 00:45:43;;;;;;;15.00;8.75;;;;;;;;;;5028877;28;20026;-58
2021/12/31 00:48:11;;;;;;;12.52;8.10;;;;;;;;;;5032386;28;20132;-56
2021/12/31 00:50:38;;;;;;;9.77;8.57;;;;;;;;;;5033983;28;20040;-55
2021/12/31 00:53:05;;;;;;;11.75;8.60;;;;;;;;;;5031047;28;20037;-51
2021/12/31 00:55:31;;;;;;;12.50;8.55;;;;;;;;;;5025141;28;20025;-54
2021/12/31 00:57:57;;;;;;;11.95;8.20;;;;;;;;;;5028388;28;20043;-56
2021/12/31 01:00:22;;;;;;;11.27;7.75;;;;;;;;;;5026526;28;20122;-52
2021/12/31 01:02:48;;;;;;;10.82;7.43;;;;;;;;;;5021669;28;20062;-50
2021/12/31 01:05:15;;;;;;;13.90;7.78;;;;;;;;;;5057769;28;20487;-53
2021/12/31 01:07:41;;;;;;;10.10;7.72;;;;;;;;;;5029892;28;20036;-52
2021/12/31 01:10:12;;;;;;;10.07;8.05;;;;;;;;;;5025672;28;20525;-49
2021/12/31 01:12:37;;;;;;;11.05;8.25;;;;;;;;;;5030299;28;20038;-52
2021/12/31 01:15:08;;;;;;;11.90;8.00;;;;;;;;;;5031562;28;20045;-52
2021/12/31 01:20:07;;;;;;;11.63;7.93;;;;;;;;;;5024683;28;20052;-53
2021/12/31 01:22:33;;;;;;;9.00;7.60;;;;;;;;;;5027936;28;20492;-52
2021/12/31 01:25:00;;;;;;;12.40;9.00;;;;;;;;;;5024749;28;20478;-52
2021/12/31 01:27:27;;;;;;;15.77;9.00;;;;;;;;;;5026798;28;20042;-51
2021/12/31 01:29:53;;;;;;;12.18;8.55;;;;;;;;;;5030253;28;21523;-51
2021/12/31 01:32:18;;;;;;;14.30;9.82;;;;;;;;;;5031479;28;20056;-51
2021/12/31 01:34:44;;;;;;;13.07;9.15;;;;;;;;;;5032592;28;20945;-52
2021/12/31 01:37:11;;;;;;;12.30;7.50;;;;;;;;;;5025791;28;20040;-49
2021/12/31 01:39:37;;;;;;;15.40;7.88;;;;;;;;;;5025749;28;20025;-52
2021/12/31 01:42:07;;;;;;;9.40;7.60;;;;;;;;;;5032518;28;20044;-53
2021/12/31 01:44:40;;;;;;;15.50;7.75;;;;;;;;;;5035192;28;20033;-49
2021/12/31 01:47:11;;;;;;;13.02;7.00;;;;;;;;;;5031418;28;20040;-52
2021/12/31 01:49:40;;;;;;;14.38;8.00;;;;;;;;;;5030226;28;20040;-54
2021/12/31 01:52:08;;;;;;;29.67;9.15;;;;;;;;;;5027005;28;20036;-51
2021/12/31 01:54:35;;;;;;;57.67;10.05;;;;;;;;;;5030450;28;20049;-50
2021/12/31 01:57:04;;;;;;;25.67;9.70;;;;;;;;;;5036992;28;20029;-52
2021/12/31 01:59:30;;;;;;;66.60;11.10;;;;;;;;;;5032924;28;20040;-52
2021/12/31 02:01:57;;;;;;;135.50;12.70;;;;;;;;;;5032632;28;20410;-57
2021/12/31 02:04:23;;;;;;;53.20;10.52;;;;;;;;;;5032686;28;20039;-54
2021/12/31 02:06:48;;;;;;;55.25;10.48;;;;;;;;;;5030372;28;20030;-54
2021/12/31 02:09:14;;;;;;;48.78;10.82;;;;;;;;;;5037102;28;20034;-49
2021/12/31 02:11:40;;;;;;;70.65;11.07;;;;;;;;;;5034852;28;20108;-54
2021/12/31 02:14:07;;;;;;;109.95;11.40;;;;;;;;;;5031460;28;20509;-54
2021/12/31 02:16:33;;;;;;;70.57;10.32;;;;;;;;;;5030304;28;20078;-52
2021/12/31 02:19:09;;;;;;;59.72;10.27;;;;;;;;;;5020098;28;20076;-50
2021/12/31 02:21:35;;;;;;;77.47;11.15;;;;;;;;;;5028641;28;20486;-51
2021/12/31 02:24:05;;;;;;;66.38;10.40;;;;;;;;;;5028569;28;20061;-52
2021/12/31 02:26:31;;;;;;;30.17;9.27;;;;;;;;;;5030977;28;20068;-51
2021/12/31 02:28:57;;;;;;;29.67;9.15;;;;;;;;;;5035769;28;20021;-53
2021/12/31 02:31:23;;;;;;;55.42;10.25;;;;;;;;;;5029777;28;20537;-53
2021/12/31 02:33:50;;;;;;;47.33;9.98;;;;;;;;;;5030198;28;20087;-52
2021/12/31 02:36:16;;;;;;;41.47;10.57;;;;;;;;;;5028362;28;20025;-52
2021/12/31 02:38:44;;;;;;;58.95;10.70;;;;;;;;;;5033525;28;20036;-49
2021/12/31 02:41:10;;;;;;;67.40;10.60;;;;;;;;;;5037981;28;20040;-50
2021/12/31 02:43:37;;;;;;;61.05;10.07;;;;;;;;;;5031599;28;20029;-49
2021/12/31 02:46:03;;;;;;;66.22;10.07;;;;;;;;;;5033795;28;20044;-53
2021/12/31 02:48:28;;;;;;;15.98;9.27;;;;;;;;;;5027288;28;20030;-50
2021/12/31 02:50:57;;;;;;;44.85;11.23;;;;;;;;;;5033868;28;20021;-50
2021/12/31 02:53:30;;;;;;;13.32;10.57;;;;;;;;;;5028884;28;20037;-51
2021/12/31 02:56:02;;;;;;;23.88;9.98;;;;;;;;;;5030286;28;20025;-57
2021/12/31 02:58:28;;;;;;;18.33;10.18;;;;;;;;;;5027800;28;20043;-51
2021/12/31 03:00:54;;;;;;;17.02;10.90;;;;;;;;;;5027760;28;20038;-51
2021/12/31 03:03:22;;;;;;;17.70;11.55;;;;;;;;;;5035983;28;20035;-53
2021/12/31 03:05:49;;;;;;;17.45;11.18;;;;;;;;;;5038001;28;20064;-52
2021/12/31 03:08:17;;;;;;;18.42;11.20;;;;;;;;;;5034854;28;20029;-49
2021/12/31 03:10:44;;;;;;;18.15;10.60;;;;;;;;;;5029891;28;20120;-54
2021/12/31 03:13:10;;;;;;;19.42;11.90;;;;;;;;;;5032005;28;20108;-56
2021/12/31 03:15:38;;;;;;;23.42;12.10;;;;;;;;;;5045202;28;20108;-49
2021/12/31 03:18:06;;;;;;;22.08;12.13;;;;;;;;;;5020146;28;20037;-52
2021/12/31 03:20:41;;;;;;;21.30;11.95;;;;;;;;;;5038951;28;20056;-51
2021/12/31 03:23:07;;;;;;;23.67;12.32;;;;;;;;;;5034455;28;20041;-56
2021/12/31 03:25:33;;;;;;;25.40;13.05;;;;;;;;;;5031849;28;20374;-54
2021/12/31 03:27:59;;;;;;;27.92;14.48;;;;;;;;;;5025733;28;20026;-51
2021/12/31 03:30:25;;;;;;;37.67;13.63;;;;;;;;;;5036884;28;20022;-51
2021/12/31 03:32:52;;;;;;;29.00;13.85;;;;;;;;;;5031393;28;20034;-53
2021/12/31 03:35:18;;;;;;;30.25;13.32;;;;;;;;;;5022528;28;20052;-53
2021/12/31 03:37:44;;;;;;;35.17;13.13;;;;;;;;;;5032322;28;20565;-51
2021/12/31 03:40:11;;;;;;;26.70;13.15;;;;;;;;;;5025936;28;20182;-52
2021/12/31 03:42:36;;;;;;;35.90;12.40;;;;;;;;;;5032973;28;20410;-50
2021/12/31 03:45:04;;;;;;;43.85;13.93;;;;;;;;;;5034098;28;20044;-52
2021/12/31 03:47:30;;;;;;;26.20;12.43;;;;;;;;;;5024086;28;20490;-55
2021/12/31 03:49:56;;;;;;;43.42;13.63;;;;;;;;;;5033403;28;20025;-51
2021/12/31 03:52:21;;;;;;;30.10;13.52;;;;;;;;;;5033031;28;20041;-53
2021/12/31 03:54:47;;;;;;;43.97;14.05;;;;;;;;;;5035226;28;20168;-51
2021/12/31 03:57:13;;;;;;;33.38;14.60;;;;;;;;;;5029820;28;20036;-53
2021/12/31 03:59:38;;;;;;;26.20;13.02;;;;;;;;;;5030712;28;20395;-54
2021/12/31 04:02:04;;;;;;;37.40;13.45;;;;;;;;;;5032927;28;20041;-57
2021/12/31 04:04:30;;;;;;;34.97;12.73;;;;;;;;;;5029932;28;20553;-54
2021/12/31 04:06:56;;;;;;;48.28;12.48;;;;;;;;;;5035639;28;20449;-55
2021/12/31 04:09:22;;;;;;;44.25;11.48;;;;;;;;;;5036575;28;20104;-50
2021/12/31 04:11:47;;;;;;;27.00;11.45;;;;;;;;;;5033293;28;20057;-55
2021/12/31 04:14:13;;;;;;;34.28;11.00;;;;;;;;;;5028059;28;20075;-56
2021/12/31 04:16:39;;;;;;;36.67;11.27;;;;;;;;;;5030129;28;20394;-52
2021/12/31 04:19:04;;;;;;;39.67;11.20;;;;;;;;;;5028288;28;20087;-50
2021/12/31 04:21:31;;;;;;;34.10;11.65;;;;;;;;;;5029275;28;20034;-55
2021/12/31 04:24:15;;;;;;;44.80;10.80;;;;;;;;;;5028413;28;20038;-54
2021/12/31 04:26:41;;;;;;;31.15;10.43;;;;;;;;;;5057046;28;20025;-51
2021/12/31 04:29:07;;;;;;;43.20;11.18;;;;;;;;;;5027470;28;20044;-50
2021/12/31 04:31:32;;;;;;;32.75;11.10;;;;;;;;;;5021523;28;20032;-55
2021/12/31 04:34:04;;;;;;;35.58;11.48;;;;;;;;;;5024798;28;20387;-55
2021/12/31 04:36:30;;;;;;;41.50;11.10;;;;;;;;;;5031119;28;20035;-49
2021/12/31 04:38:55;;;;;;;29.35;10.38;;;;;;;;;;5030355;28;20029;-52
2021/12/31 04:41:21;;;;;;;45.33;11.10;;;;;;;;;;5032121;28;20047;-55
2021/12/31 04:43:47;;;;;;;40.58;11.25;;;;;;;;;;5030055;28;20029;-52
2021/12/31 04:46:13;;;;;;;53.70;12.32;;;;;;;;;;5025530;28;20037;-49
2021/12/31 04:48:38;;;;;;;40.10;11.15;;;;;;;;;;5026659;28;20438;-52
2021/12/31 04:51:04;;;;;;;40.42;11.93;;;;;;;;;;5028194;28;20030;-51
2021/12/31 04:53:30;;;;;;;51.78;11.63;;;;;;;;;;5033889;28;20033;-51
2021/12/31 04:55:55;;;;;;;45.35;13.57;;;;;;;;;;5031977;28;20064;-53
2021/12/31 04:58:21;;;;;;;29.88;11.48;;;;;;;;;;5030817;28;20124;-51
2021/12/31 05:00:47;;;;;;;45.55;11.73;;;;;;;;;;5024808;28;20041;-54
2021/12/31 05:03:14;;;;;;;33.80;12.00;;;;;;;;;;5024101;28;20059;-54
2021/12/31 05:05:40;;;;;;;36.60;12.02;;;;;;;;;;5024347;28;20048;-56
2021/12/31 05:08:05;;;;;;;34.70;12.60;;;;;;;;;;5030327;28;20397;-51
2021/12/31 05:10:32;;;;;;;32.45;11.35;;;;;;;;;;5024978;28;20022;-53
2021/12/31 05:13:03;;;;;;;39.30;12.32;;;;;;;;;;5058010;28;20095;-55
2021/12/31 05:15:33;;;;;;;39.65;12.00;;;;;;;;;;5023513;28;20068;-52
2021/12/31 05:18:00;;;;;;;45.20;12.35;;;;;;;;;;5024177;28;20041;-55
2021/12/31 05:20:26;;;;;;;43.00;12.95;;;;;;;;;;5026650;28;20406;-55
2021/12/31 05:22:52;;;;;;;40.65;13.35;;;;;;;;;;5028057;28;20034;-55
2021/12/31 05:25:19;;;;;;;34.15;13.00;;;;;;;;;;5025888;28;20052;-51
2021/12/31 05:27:45;;;;;;;45.70;13.52;;;;;;;;;;5035087;28;20029;-55
2021/12/31 05:30:11;;;;;;;39.72;13.75;;;;;;;;;;5031296;28;20033;-55
2021/12/31 05:32:37;;;;;;;43.47;13.52;;;;;;;;;;5028927;28;20037;-52
2021/12/31 05:35:03;;;;;;;38.63;12.85;;;;;;;;;;5030004;28;20029;-52
2021/12/31 05:37:29;;;;;;;46.85;14.75;;;;;;;;;;5056183;28;20372;-53
2021/12/31 05:39:55;;;;;;;44.03;14.25;;;;;;;;;;5027159;28;20034;-52
2021/12/31 05:42:20;;;;;;;40.80;13.52;;;;;;;;;;5032595;28;20109;-52
2021/12/31 05:44:48;;;;;;;37.28;14.27;;;;;;;;;;5029906;28;20036;-53
2021/12/31 05:47:14;;;;;;;38.55;13.38;;;;;;;;;;5028606;28;20096;-54
2021/12/31 05:49:40;;;;;;;49.00;13.57;;;;;;;;;;5024627;28;20030;-51
2021/12/31 05:52:06;;;;;;;46.80;14.63;;;;;;;;;;5031389;28;20029;-57
2021/12/31 05:54:32;;;;;;;43.65;14.07;;;;;;;;;;5032575;28;20037;-52
2021/12/31 05:56:58;;;;;;;40.65;13.43;;;;;;;;;;5031730;28;20036;-50
2021/12/31 05:59:24;;;;;;;41.40;14.15;;;;;;;;;;5027210;28;20028;-55
2021/12/31 06:01:49;;;;;;;38.83;15.30;;;;;;;;;;5030531;28;20547;-57
2021/12/31 06:04:16;;;;;;;46.55;16.25;;;;;;;;;;5027754;28;20029;-57
2021/12/31 06:06:43;;;;;;;45.53;16.20;;;;;;;;;;5025548;28;20034;-51
2021/12/31 06:09:11;;;;;;;40.83;15.25;;;;;;;;;;5032656;28;20034;-56
2021/12/31 06:11:38;;;;;;;39.30;14.75;;;;;;;;;;5030530;28;20029;-57
2021/12/31 06:14:05;;;;;;;38.75;14.38;;;;;;;;;;5024119;28;20569;-53
2021/12/31 06:16:37;;;;;;;34.15;14.23;;;;;;;;;;5019188;28;20045;-55
2021/12/31 06:19:11;;;;;;;30.83;13.88;;;;;;;;;;5024259;28;20050;-55
2021/12/31 06:21:41;;;;;;;33.15;14.35;;;;;;;;;;5023799;28;20402;-50
2021/12/31 06:24:08;;;;;;;28.60;13.50;;;;;;;;;;5030232;28;20034;-56
2021/12/31 06:26:34;;;;;;;29.90;13.65;;;;;;;;;;5029301;28;20478;-57
2021/12/31 06:28:59;;;;;;;33.33;13.48;;;;;;;;;;5027403;28;20086;-55
2021/12/31 06:31:26;;;;;;;30.95;13.60;;;;;;;;;;5028116;28;20060;-55
2021/12/31 06:33:52;;;;;;;28.10;13.25;;;;;;;;;;5023474;28;20554;-53
2021/12/31 06:36:19;;;;;;;33.58;13.18;;;;;;;;;;5029105;28;20042;-57
2021/12/31 06:38:45;;;;;;;27.67;13.35;;;;;;;;;;5030597;28;20033;-51
2021/12/31 06:41:11;;;;;;;25.98;12.45;;;;;;;;;;5035286;28;20036;-54
2021/12/31 06:43:37;;;;;;;27.13;11.82;;;;;;;;;;5032678;28;20100;-58
2021/12/31 06:46:02;;;;;;;26.63;12.18;;;;;;;;;;5027596;28;20064;-58
2021/12/31 06:48:28;;;;;;;27.70;13.10;;;;;;;;;;5033131;28;20056;-51
2021/12/31 06:50:54;;;;;;;35.70;14.32;;;;;;;;;;5030545;28;20544;-53
2021/12/31 06:53:19;;;;;;;31.38;13.15;;;;;;;;;;5032628;28;20033;-55
2021/12/31 06:55:45;;;;;;;39.53;13.55;;;;;;;;;;5027796;28;20025;-54
2021/12/31 06:58:11;;;;;;;23.23;11.73;;;;;;;;;;5027143;28;20044;-55
2021/12/31 07:00:37;;;;;;;25.17;11.38;;;;;;;;;;5033208;28;20030;-55
2021/12/31 07:03:10;;;;;;;23.70;12.68;;;;;;;;;;5028357;28;20040;-54
2021/12/31 07:05:37;;;;;;;22.52;11.02;;;;;;;;;;5030631;28;20459;-53
2021/12/31 07:08:03;;;;;;;23.77;11.05;;;;;;;;;;5031549;28;20075;-54
2021/12/31 07:10:29;;;;;;;24.85;11.55;;;;;;;;;;5032190;28;20029;-57
2021/12/31 07:13:10;;;;;;;28.38;12.25;;;;;;;;;;5036644;28;20022;-57
2021/12/31 07:15:44;;;;;;;20.35;11.25;;;;;;;;;;5032007;28;20379;-53
2021/12/31 07:18:10;;;;;;;21.95;10.93;;;;;;;;;;5028588;28;20044;-54
2021/12/31 07:20:37;;;;;;;24.75;10.70;;;;;;;;;;5036120;28;20121;-57
2021/12/31 07:23:08;;;;;;;27.48;10.25;;;;;;;;;;5024376;28;20104;-57
2021/12/31 07:25:34;;;;;;;19.92;10.75;;;;;;;;;;5029607;28;20056;-53
2021/12/31 07:28:00;;;;;;;17.88;10.20;;;;;;;;;;5022473;28;20495;-56
2021/12/31 07:30:27;;;;;;;20.23;8.80;;;;;;;;;;5029987;28;20387;-57
2021/12/31 07:32:52;;;;;;;28.67;8.50;;;;;;;;;;5031839;28;20017;-54
2021/12/31 07:35:19;;;;;;;31.13;8.25;;;;;;;;;;5032706;28;20032;-57
2021/12/31 07:37:45;;;;;;;25.73;9.15;;;;;;;;;;5032949;28;20037;-57
2021/12/31 07:40:12;;;;;;;18.00;9.30;;;;;;;;;;5035379;28;20094;-57
2021/12/31 07:42:38;;;;;;;27.98;9.20;;;;;;;;;;5024444;28;20018;-57
2021/12/31 07:45:06;;;;;;;19.40;9.43;;;;;;;;;;5030488;28;20038;-51
2021/12/31 07:47:32;;;;;;;22.00;8.38;;;;;;;;;;5033612;28;20025;-55
2021/12/31 07:49:57;;;;;;;31.65;8.75;;;;;;;;;;5030932;28;20386;-49
2021/12/31 07:52:23;;;;;;;22.17;8.15;;;;;;;;;;5059111;28;20029;-53
2021/12/31 07:54:49;;;;;;;23.30;7.57;;;;;;;;;;5033207;28;20083;-57
2021/12/31 07:57:14;;;;;;;32.08;7.22;;;;;;;;;;5033670;28;20056;-54
2021/12/31 07:59:40;;;;;;;24.98;6.88;;;;;;;;;;5033589;28;20025;-54
2021/12/31 08:02:07;;;;;;;18.83;6.60;;;;;;;;;;5030689;28;20030;-57
2021/12/31 08:04:33;;;;;;;17.90;6.80;;;;;;;;;;5029878;28;20045;-56
2021/12/31 08:06:59;;;;;;;16.63;7.80;;;;;;;;;;5019760;28;20482;-55
2021/12/31 08:09:25;;;;;;;12.35;7.20;;;;;;;;;;5025706;28;20034;-57
2021/12/31 08:11:51;;;;;;;11.75;7.93;;;;;;;;;;5026762;28;20151;-55
2021/12/31 08:14:17;;;;;;;14.93;7.15;;;;;;;;;;5033409;28;20040;-57
2021/12/31 08:16:42;;;;;;;17.75;7.32;;;;;;;;;;5056822;28;20044;-57
2021/12/31 08:19:08;;;;;;;28.38;7.43;;;;;;;;;;5031070;28;20494;-57
2021/12/31 08:21:34;;;;;;;15.02;7.43;;;;;;;;;;5024294;28;20026;-55
2021/12/31 08:24:00;;;;;;;17.35;7.35;;;;;;;;;;5031916;28;20474;-57
2021/12/31 08:26:26;;;;;;;18.92;7.70;;;;;;;;;;5036045;28;20036;-51
2021/12/31 08:28:52;;;;;;;17.58;8.07;;;;;;;;;;5027628;28;20036;-52
2021/12/31 08:31:17;;;;;;;19.45;8.43;;;;;;;;;;5018062;28;20041;-49
2021/12/31 08:33:43;;;;;;;11.43;8.18;;;;;;;;;;5031206;28;20048;-49
2021/12/31 08:36:09;;;;;;;10.50;6.97;;;;;;;;;;5031984;28;20119;-55
2021/12/31 08:38:34;;;;;;;11.85;7.25;;;;;;;;;;5036099;28;20033;-52
2021/12/31 08:41:01;;;;;;;18.88;7.28;;;;;;;;;;5031049;28;20078;-51
2021/12/31 08:43:27;;;;;;;10.88;7.88;;;;;;;;;;5032412;28;20104;-51
2021/12/31 08:45:53;;;;;;;10.25;7.38;;;;;;;;;;5024960;28;20114;-51
2021/12/31 08:48:18;;;;;;;11.70;8.13;;;;;;;;;;5028483;28;20065;-53
2021/12/31 08:50:44;;;;;;;12.20;7.88;;;;;;;;;;5033620;28;20025;-49
2021/12/31 08:53:10;;;;;;;9.95;7.20;;;;;;;;;;5036377;28;20028;-49
2021/12/31 08:55:36;;;;;;;8.43;7.07;;;;;;;;;;5032307;28;20420;-50
2021/12/31 08:58:02;;;;;;;9.77;7.32;;;;;;;;;;5027696;28;20440;-51
2021/12/31 09:00:27;;;;;;;11.00;7.50;;;;;;;;;;5027952;28;20026;-50
2021/12/31 09:02:53;;;;;;;10.40;7.95;;;;;;;;;;5036057;28;20363;-52
2021/12/31 09:05:20;;;;;;;10.85;7.60;;;;;;;;;;5032468;28;20082;-50
2021/12/31 09:07:45;;;;;;;11.00;7.72;;;;;;;;;;5029229;28;20021;-52
2021/12/31 09:10:11;;;;;;;9.88;7.88;;;;;;;;;;5032055;28;20025;-55
2021/12/31 09:12:37;;;;;;;9.55;7.63;;;;;;;;;;5021799;28;20026;-54
2021/12/31 09:15:04;;;;;;;10.18;7.25;;;;;;;;;;5033541;28;20080;-51
2021/12/31 09:17:30;;;;;;;8.10;6.38;;;;;;;;;;5037948;28;20424;-54
2021/12/31 09:19:56;;;;;;;8.70;6.72;;;;;;;;;;5029608;28;20037;-56
2021/12/31 09:22:22;;;;;;;8.23;7.38;;;;;;;;;;5028380;28;20551;-55
2021/12/31 09:24:48;;;;;;;10.20;7.15;;;;;;;;;;5028329;28;20045;-54
2021/12/31 09:27:14;;;;;;;12.32;7.18;;;;;;;;;;5031794;28;20036;-51
2021/12/31 09:29:40;;;;;;;9.10;7.07;;;;;;;;;;5032406;28;20440;-50
2021/12/31 09:32:06;;;;;;;10.18;7.57;;;;;;;;;;5031763;28;20029;-56
2021/12/31 09:34:32;;;;;;;10.93;7.35;;;;;;;;;;5028858;28;20057;-49
2021/12/31 09:36:58;;;;;;;10.23;6.90;;;;;;;;;;5029088;28;20059;-55
2021/12/31 09:39:23;;;;;;;8.10;6.78;;;;;;;;;;5029207;28;20114;-53
2021/12/31 09:41:49;;;;;;;11.32;7.95;;;;;;;;;;5031489;28;20402;-55
2021/12/31 09:44:15;;;;;;;12.52;8.52;;;;;;;;;;5023111;28;20032;-51
2021/12/31 09:46:42;;;;;;;14.07;9.35;;;;;;;;;;5024145;28;20086;-51
2021/12/31 09:49:08;;;;;;;15.48;10.10;;;;;;;;;;5029024;28;20037;-51
2021/12/31 09:51:34;;;;;;;13.63;10.00;;;;;;;;;;5022338;28;20026;-50
2021/12/31 09:54:00;;;;;;;15.43;10.77;;;;;;;;;;5030475;28;20040;-52
2021/12/31 09:56:27;;;;;;;16.40;11.15;;;;;;;;;;5035767;28;20036;-51
2021/12/31 09:58:52;;;;;;;15.07;11.68;;;;;;;;;;5027205;28;20034;-52
2021/12/31 10:01:18;;;;;;;19.73;11.88;;;;;;;;;;5032097;28;20025;-54
2021/12/31 10:03:57;;;;;;;18.42;12.77;;;;;;;;;;5029294;28;20912;-55
2021/12/31 10:06:26;;;;;;;17.80;12.23;;;;;;;;;;5027077;28;20394;-48
2021/12/31 10:08:53;;;;;;;20.55;12.38;;;;;;;;;;5035505;28;20033;-52
2021/12/31 10:11:21;;;;;;;19.27;12.25;;;;;;;;;;5036350;28;20048;-50
2021/12/31 10:14:01;;;;;;;19.25;12.30;;;;;;;;;;5034586;28;20025;-51
2021/12/31 10:16:42;;;;;;;16.73;11.32;;;;;;;;;;5023088;28;20033;-55
2021/12/31 10:19:16;;;;;;;19.23;11.85;;;;;;;;;;5025431;28;20532;-53
2021/12/31 10:21:46;;;;;;;23.17;13.45;;;;;;;;;;5031581;28;20029;-54
2021/12/31 10:24:32;;;;;;;17.10;12.07;;;;;;;;;;5036229;28;20037;-54
2021/12/31 10:27:20;;;;;;;24.85;15.73;;;;;;;;;;5036125;28;20427;-52
2021/12/31 10:30:03;;;;;;;23.60;15.60;;;;;;;;;;5026573;28;20084;-55
2021/12/31 10:32:36;;;;;;;29.00;16.35;;;;;;;;;;5034208;28;20083;-52
2021/12/31 10:35:13;;;;;;;27.77;16.55;;;;;;;;;;5034964;28;20044;-54
2021/12/31 10:37:44;;;;;;;34.60;16.52;;;;;;;;;;5033895;28;20569;-50
2021/12/31 10:40:12;;;;;;;27.30;16.05;;;;;;;;;;5030872;28;20021;-51
2021/12/31 10:42:40;;;;;;;30.02;15.93;;;;;;;;;;5028911;28;20517;-50
2021/12/31 10:45:07;;;;;;;29.70;16.85;;;;;;;;;;5032759;28;20512;-51
2021/12/31 10:47:42;;;;;;;26.67;15.82;;;;;;;;;;5033204;28;20108;-49
2021/12/31 10:50:11;;;;;;;30.60;16.05;;;;;;;;;;5033317;28;20032;-55
2021/12/31 10:53:10;;;;;;;28.17;16.38;;;;;;;;;;5030968;28;20063;-55
2021/12/31 10:55:39;;;;;;;32.17;17.95;;;;;;;;;;5030605;28;20025;-50
2021/12/31 10:58:10;;;;;;;28.30;18.70;;;;;;;;;;5025632;28;20540;-52
2021/12/31 11:00:41;;;;;;;27.73;19.08;;;;;;;;;;5028948;28;20021;-51
2021/12/31 11:03:07;;;;;;;33.88;18.27;;;;;;;;;;5029199;28;20084;-55
2021/12/31 11:05:34;;;;;;;32.30;18.60;;;;;;;;;;5028141;28;20033;-56
2021/12/31 11:08:07;;;;;;;38.97;20.08;;;;;;;;;;5032161;28;20493;-51
2021/12/31 11:10:35;;;;;;;38.78;21.17;;;;;;;;;;5028431;28;20138;-54
2021/12/31 11:13:30;;;;;;;37.17;21.55;;;;;;;;;;5026387;28;20505;-56
2021/12/31 11:15:57;;;;;;;45.50;20.45;;;;;;;;;;5032308;28;20805;-53
2021/12/31 11:18:25;;;;;;;36.75;20.48;;;;;;;;;;5028392;28;20084;-55
2021/12/31 11:20:55;;;;;;;41.80;20.88;;;;;;;;;;5033032;28;20084;-58
2021/12/31 11:23:29;;;;;;;35.17;19.33;;;;;;;;;;5035771;28;20044;-49
2021/12/31 11:26:05;;;;;;;32.47;18.92;;;;;;;;;;5030173;28;20044;-51
2021/12/31 11:28:39;;;;;;;44.33;22.35;;;;;;;;;;5020950;28;20026;-53
2021/12/31 11:31:17;;;;;;;39.38;21.42;;;;;;;;;;5024379;28;20478;-54
2021/12/31 11:33:44;;;;;;;35.88;21.38;;;;;;;;;;5031697;28;20038;-56
2021/12/31 11:36:11;;;;;;;39.47;21.38;;;;;;;;;;5037370;28;20104;-49
2021/12/31 11:38:42;;;;;;;44.28;23.10;;;;;;;;;;5031907;28;20036;-56
2021/12/31 11:41:23;;;;;;;42.42;23.25;;;;;;;;;;5031251;28;20119;-55
2021/12/31 11:44:08;;;;;;;43.33;23.75;;;;;;;;;;5024728;28;20037;-57
2021/12/31 11:46:40;;;;;;;49.88;23.10;;;;;;;;;;5024485;28;20113;-51
2021/12/31 11:49:10;;;;;;;;;;;;;;;;;;5020893;28;20109;-51
2021/12/31 11:51:54;;;;;;;44.67;22.48;;;;;;;;;;5032531;28;20023;-53
2021/12/31 11:54:20;;;;;;;42.85;22.88;;;;;;;;;;5030297;28;20455;-50
2021/12/31 11:56:50;;;;;;;51.65;24.10;;;;;;;;;;5024847;28;20033;-53
2021/12/31 11:59:16;;;;;;;45.58;25.30;;;;;;;;;;5033411;28;20105;-50
2021/12/31 12:01:47;;;;;;;53.20;28.45;;;;;;;;;;5021265;28;20116;-51
2021/12/31 12:04:37;;;;;;;56.17;28.35;;;;;;;;;;5028505;28;20033;-51
2021/12/31 12:07:03;;;;;;;60.50;29.33;;;;;;;;;;5028979;28;20498;-54
2021/12/31 12:09:38;;;;;;;51.72;28.60;;;;;;;;;;5036873;28;20040;-51
2021/12/31 12:12:22;;;;;;;66.93;30.67;;;;;;;;;;5026655;28;20037;-52
2021/12/31 12:14:51;;;;;;;51.75;27.20;;;;;;;;;;5027098;28;20045;-53
2021/12/31 12:17:39;;;;;;;44.28;25.63;;;;;;;;;;5023859;28;20036;-51
2021/12/31 12:20:10;;;;;;;44.88;26.48;;;;;;;;;;5024113;28;20046;-50
2021/12/31 12:22:49;;;;;;;48.08;25.88;;;;;;;;;;5030889;28;20031;-55
2021/12/31 12:25:16;;;;;;;46.75;27.15;;;;;;;;;;5027823;28;20034;-54
2021/12/31 12:27:46;;;;;;;47.08;26.50;;;;;;;;;;5026074;28;20041;-55
2021/12/31 12:30:13;;;;;;;54.40;28.33;;;;;;;;;;5032680;28;20037;-57
2021/12/31 12:32:52;;;;;;;52.55;29.00;;;;;;;;;;5030069;28;20032;-51
2021/12/31 12:35:24;;;;;;;54.60;29.88;;;;;;;;;;5033587;28;20485;-50
2021/12/31 12:38:17;;;;;;;53.30;28.75;;;;;;;;;;5031909;28;20095;-54
2021/12/31 12:40:53;;;;;;;58.70;31.42;;;;;;;;;;5021878;28;20494;-57
2021/12/31 12:43:33;;;;;;;52.20;30.70;;;;;;;;;;5021989;28;20037;-51
2021/12/31 12:46:07;;;;;;;41.42;24.33;;;;;;;;;;5030720;28;20033;-58
2021/12/31 12:48:34;;;;;;;44.35;24.08;;;;;;;;;;5028230;28;20057;-57
2021/12/31 12:51:02;;;;;;;64.43;31.98;;;;;;;;;;5030795;28;20116;-55
2021/12/31 12:53:30;;;;;;;66.47;30.27;;;;;;;;;;5024198;28;20060;-50
2021/12/31 12:56:03;;;;;;;51.45;26.85;;;;;;;;;;5030801;28;20099;-53
2021/12/31 12:58:29;;;;;;;41.22;24.00;;;;;;;;;;5025168;28;20036;-53
2021/12/31 13:00:56;;;;;;;46.63;23.88;;;;;;;;;;5024692;28;20029;-55
2021/12/31 13:03:24;;;;;;;47.17;20.50;;;;;;;;;;5033725;28;20426;-53
2021/12/31 13:06:01;;;;;;;43.97;21.42;;;;;;;;;;5030247;28;20114;-57
2021/12/31 13:08:27;;;;;;;39.22;20.08;;;;;;;;;;5030532;28;20040;-55
2021/12/31 13:10:53;;;;;;;42.20;21.92;;;;;;;;;;5020014;28;20033;-51
2021/12/31 13:13:19;;;;;;;36.92;21.17;;;;;;;;;;5021558;28;20033;-49
2021/12/31 13:15:45;;;;;;;35.70;17.27;;;;;;;;;;5028898;28;20026;-56
2021/12/31 13:18:11;;;;;;;34.00;18.75;;;;;;;;;;5024123;28;20057;-55
2021/12/31 13:20:37;;;;;;;34.80;18.52;;;;;;;;;;5026665;28;20488;-57
2021/12/31 13:23:08;;;;;;;30.98;18.55;;;;;;;;;;5027259;28;20030;-51
2021/12/31 13:25:48;;;;;;;39.45;20.02;;;;;;;;;;5029497;28;20033;-56
2021/12/31 13:28:19;;;;;;;36.60;20.13;;;;;;;;;;5022161;28;20029;-51
2021/12/31 13:31:08;;;;;;;33.40;19.98;;;;;;;;;;5024412;28;20482;-56
2021/12/31 13:33:46;;;;;;;40.50;20.55;;;;;;;;;;5031383;28;20037;-52
2021/12/31 13:36:11;;;;;;;35.40;20.70;;;;;;;;;;5030613;28;20033;-53
2021/12/31 13:39:07;;;;;;;34.75;20.33;;;;;;;;;;5017319;28;20033;-57
2021/12/31 13:41:52;;;;;;;41.28;20.65;;;;;;;;;;5020883;28;20114;-55
2021/12/31 13:44:21;;;;;;;38.92;21.05;;;;;;;;;;5026487;28;20218;-54
2021/12/31 13:46:57;;;;;;;34.63;20.38;;;;;;;;;;5033731;28;20030;-49
2021/12/31 13:49:23;;;;;;;35.50;21.70;;;;;;;;;;5027648;28;20038;-50
2021/12/31 13:51:49;;;;;;;37.60;21.30;;;;;;;;;;5028482;28;20172;-56
2021/12/31 13:54:17;;;;;;;37.88;21.95;;;;;;;;;;5032446;28;20112;-56
2021/12/31 13:56:48;;;;;;;38.40;21.63;;;;;;;;;;5027972;28;20041;-56
2021/12/31 13:59:36;;;;;;;37.10;22.40;;;;;;;;;;5031793;28;20040;-49
2021/12/31 14:02:06;;;;;;;44.67;22.35;;;;;;;;;;5031115;28;20375;-50
2021/12/31 14:04:33;;;;;;;43.25;24.08;;;;;;;;;;5033408;28;20470;-49
2021/12/31 14:07:20;;;;;;;42.63;24.75;;;;;;;;;;5026536;28;20103;-56
2021/12/31 14:09:48;;;;;;;47.40;24.10;;;;;;;;;;5031463;28;20021;-56
2021/12/31 14:12:14;;;;;;;51.65;27.13;;;;;;;;;;5033364;28;20029;-55
2021/12/31 14:14:43;;;;;;;50.72;27.80;;;;;;;;;;5035322;28;20033;-56
2021/12/31 14:17:09;;;;;;;44.42;25.67;;;;;;;;;;5035966;28;20036;-51
2021/12/31 14:19:35;;;;;;;45.80;25.60;;;;;;;;;;5030046;28;20441;-50
2021/12/31 14:22:02;;;;;;;47.63;24.70;;;;;;;;;;5021373;28;20038;-56
2021/12/31 14:24:30;;;;;;;46.35;25.88;;;;;;;;;;5025835;28;20069;-57
2021/12/31 14:26:57;;;;;;;49.78;25.70;;;;;;;;;;5053401;28;20121;-54
2021/12/31 14:29:22;;;;;;;45.60;25.23;;;;;;;;;;5034365;28;20032;-53
2021/12/31 14:31:48;;;;;;;44.88;25.63;;;;;;;;;;5031099;28;20030;-52